sensor_id;sensor_type;location;lat;lon;timestamp;P1;durP1;ratioP1;P2;durP2;ratioP2
7460;SDS011;6757;52.258;12.840;2023-04-26T00:01:54;0.38;;;0.38;;
7460;SDS011;6757;52.258;12.840;2023-04-26T00:04:21;0.60;;;0.60;;
7460;SDS011;6757;52.258;12.840;2023-04-26T00:06:48;2.75;;;0.88;;
7460;SDS011;6757;52.258;12.840;2023-04-26T00:09:15;0.75;;;0.47;;
7460;SDS011;6757;52.258;12.840;2023-04-26T00:11:43;0.17;;;0.17;;
7460;SDS011;6757;52.258;12.840;2023-04-26T00:14:10;1.00;;;0.47;;
7460;SDS011;6757;52.258;12.840;2023-04-26T00:16:37;1.02;;;0.45;;
7460;SDS011;6757;52.258;12.840;2023-04-26T00:19:05;0.52;;;0.47;;
7460;SDS011;6757;52.258;12.840;2023-04-26T00:21:34;0.30;;;0.30;;
7460;SDS011;6757;52.258;12.840;2023-04-26T00:24:02;0.65;;;0.28;;
7460;SDS011;6757;52.258;12.840;2023-04-26T00:26:29;0.73;;;0.30;;
7460;SDS011;6757;52.258;12.840;2023-04-26T00:28:58;1.10;;;0.50;;
7460;SDS011;6757;52.258;12.840;2023-04-26T00:31:25;2.20;;;0.70;;
7460;SDS011;6757;52.258;12.840;2023-04-26T00:33:52;1.58;;;0.80;;
7460;SDS011;6757;52.258;12.840;2023-04-26T00:36:20;0.45;;;0.20;;
7460;SDS011;6757;52.258;12.840;2023-04-26T00:38:47;2.75;;;0.98;;
7460;SDS011;6757;52.258;12.840;2023-04-26T00:41:14;1.23;;;1.13;;
7460;SDS011;6757;52.258;12.840;2023-04-26T00:43:41;0.13;;;0.13;;
7460;SDS011;6757;52.258;12.840;2023-04-26T00:46:09;0.30;;;0.30;;
7460;SDS011;6757;52.258;12.840;2023-04-26T00:48:36;6.15;;;0.70;;
7460;SDS011;6757;52.258;12.840;2023-04-26T00:51:03;1.00;;;0.73;;
7460;SDS011;6757;52.258;12.840;2023-04-26T00:53:33;0.47;;;0.40;;
7460;SDS011;6757;52.258;12.840;2023-04-26T00:56:00;0.55;;;0.45;;
7460;SDS011;6757;52.258;12.840;2023-04-26T00:58:28;0.28;;;0.28;;
7460;SDS011;6757;52.258;12.840;2023-04-26T01:00:55;0.15;;;0.15;;
7460;SDS011;6757;52.258;12.840;2023-04-26T01:03:22;1.30;;;0.60;;
7460;SDS011;6757;52.258;12.840;2023-04-26T01:05:50;0.40;;;0.40;;
7460;SDS011;6757;52.258;12.840;2023-04-26T01:08:18;2.95;;;0.45;;
7460;SDS011;6757;52.258;12.840;2023-04-26T01:10:47;2.63;;;0.68;;
7460;SDS011;6757;52.258;12.840;2023-04-26T01:13:15;0.57;;;0.57;;
7460;SDS011;6757;52.258;12.840;2023-04-26T01:15:43;1.00;;;0.77;;
7460;SDS011;6757;52.258;12.840;2023-04-26T01:18:11;0.70;;;0.70;;
7460;SDS011;6757;52.258;12.840;2023-04-26T01:20:39;0.25;;;0.25;;
7460;SDS011;6757;52.258;12.840;2023-04-26T01:23:08;0.68;;;0.65;;
7460;SDS011;6757;52.258;12.840;2023-04-26T01:25:35;1.27;;;0.63;;
7460;SDS011;6757;52.258;12.840;2023-04-26T01:28:02;0.40;;;0.40;;
7460;SDS011;6757;52.258;12.840;2023-04-26T01:30:29;0.30;;;0.30;;
7460;SDS011;6757;52.258;12.840;2023-04-26T01:32:56;0.45;;;0.45;;
7460;SDS011;6757;52.258;12.840;2023-04-26T01:35:23;1.70;;;0.85;;
7460;SDS011;6757;52.258;12.840;2023-04-26T01:37:50;5.47;;;0.60;;
7460;SDS011;6757;52.258;12.840;2023-04-26T01:40:18;0.75;;;0.63;;
7460;SDS011;6757;52.258;12.840;2023-04-26T01:42:46;0.32;;;0.22;;
7460;SDS011;6757;52.258;12.840;2023-04-26T01:45:12;1.08;;;0.47;;
7460;SDS011;6757;52.258;12.840;2023-04-26T01:47:39;0.35;;;0.25;;
7460;SDS011;6757;52.258;12.840;2023-04-26T01:50:07;1.35;;;1.15;;
7460;SDS011;6757;52.258;12.840;2023-04-26T01:52:35;3.92;;;0.50;;
7460;SDS011;6757;52.258;12.840;2023-04-26T01:55:02;1.42;;;0.57;;
7460;SDS011;6757;52.258;12.840;2023-04-26T01:57:31;1.23;;;0.68;;
7460;SDS011;6757;52.258;12.840;2023-04-26T01:59:58;0.03;;;0.03;;
7460;SDS011;6757;52.258;12.840;2023-04-26T02:02:26;0.88;;;0.68;;
7460;SDS011;6757;52.258;12.840;2023-04-26T02:04:53;10.60;;;1.23;;
7460;SDS011;6757;52.258;12.840;2023-04-26T02:07:20;0.55;;;0.55;;
7460;SDS011;6757;52.258;12.840;2023-04-26T02:09:47;0.30;;;0.25;;
7460;SDS011;6757;52.258;12.840;2023-04-26T02:12:14;0.70;;;0.68;;
7460;SDS011;6757;52.258;12.840;2023-04-26T02:14:42;0.20;;;0.20;;
7460;SDS011;6757;52.258;12.840;2023-04-26T02:17:09;1.02;;;1.00;;
7460;SDS011;6757;52.258;12.840;2023-04-26T02:19:36;2.10;;;1.48;;
7460;SDS011;6757;52.258;12.840;2023-04-26T02:22:03;4.43;;;0.57;;
7460;SDS011;6757;52.258;12.840;2023-04-26T02:24:32;1.13;;;0.43;;
7460;SDS011;6757;52.258;12.840;2023-04-26T02:26:59;0.30;;;0.30;;
7460;SDS011;6757;52.258;12.840;2023-04-26T02:29:28;0.68;;;0.68;;
7460;SDS011;6757;52.258;12.840;2023-04-26T02:31:56;1.63;;;0.88;;
7460;SDS011;6757;52.258;12.840;2023-04-26T02:34:23;0.43;;;0.43;;
7460;SDS011;6757;52.258;12.840;2023-04-26T02:36:50;3.22;;;1.23;;
7460;SDS011;6757;52.258;12.840;2023-04-26T02:39:17;1.15;;;1.05;;
7460;SDS011;6757;52.258;12.840;2023-04-26T02:41:45;1.67;;;0.68;;
7460;SDS011;6757;52.258;12.840;2023-04-26T02:44:12;0.50;;;0.40;;
7460;SDS011;6757;52.258;12.840;2023-04-26T02:46:39;0.63;;;0.30;;
7460;SDS011;6757;52.258;12.840;2023-04-26T02:49:07;1.25;;;0.85;;
7460;SDS011;6757;52.258;12.840;2023-04-26T02:51:34;2.40;;;1.38;;
7460;SDS011;6757;52.258;12.840;2023-04-26T02:54:01;0.22;;;0.20;;
7460;SDS011;6757;52.258;12.840;2023-04-26T02:56:28;3.25;;;0.88;;
7460;SDS011;6757;52.258;12.840;2023-04-26T02:58:55;1.02;;;0.57;;
7460;SDS011;6757;52.258;12.840;2023-04-26T03:01:22;0.20;;;0.20;;
7460;SDS011;6757;52.258;12.840;2023-04-26T03:03:49;2.17;;;1.00;;
7460;SDS011;6757;52.258;12.840;2023-04-26T03:06:18;0.52;;;0.30;;
7460;SDS011;6757;52.258;12.840;2023-04-26T03:08:45;0.55;;;0.55;;
7460;SDS011;6757;52.258;12.840;2023-04-26T03:11:11;0.43;;;0.43;;
7460;SDS011;6757;52.258;12.840;2023-04-26T03:13:38;0.35;;;0.35;;
7460;SDS011;6757;52.258;12.840;2023-04-26T03:16:06;3.60;;;1.63;;
7460;SDS011;6757;52.258;12.840;2023-04-26T03:18:33;4.38;;;1.27;;
7460;SDS011;6757;52.258;12.840;2023-04-26T03:21:01;0.47;;;0.47;;
7460;SDS011;6757;52.258;12.840;2023-04-26T03:23:30;0.50;;;0.50;;
7460;SDS011;6757;52.258;12.840;2023-04-26T03:25:57;0.57;;;0.57;;
7460;SDS011;6757;52.258;12.840;2023-04-26T03:28:24;0.45;;;0.45;;
7460;SDS011;6757;52.258;12.840;2023-04-26T03:30:50;0.35;;;0.35;;
7460;SDS011;6757;52.258;12.840;2023-04-26T03:33:17;1.25;;;0.90;;
7460;SDS011;6757;52.258;12.840;2023-04-26T03:35:44;0.82;;;0.50;;
7460;SDS011;6757;52.258;12.840;2023-04-26T03:38:11;1.20;;;0.73;;
7460;SDS011;6757;52.258;12.840;2023-04-26T03:40:40;1.77;;;0.38;;
7460;SDS011;6757;52.258;12.840;2023-04-26T03:43:07;1.35;;;0.55;;
7460;SDS011;6757;52.258;12.840;2023-04-26T03:45:34;2.85;;;0.73;;
7460;SDS011;6757;52.258;12.840;2023-04-26T03:48:01;0.20;;;0.15;;
7460;SDS011;6757;52.258;12.840;2023-04-26T03:50:29;0.30;;;0.30;;
7460;SDS011;6757;52.258;12.840;2023-04-26T03:52:56;0.40;;;0.40;;
7460;SDS011;6757;52.258;12.840;2023-04-26T03:55:23;0.30;;;0.30;;
7460;SDS011;6757;52.258;12.840;2023-04-26T03:57:51;1.10;;;0.75;;
7460;SDS011;6757;52.258;12.840;2023-04-26T04:00:19;0.77;;;0.45;;
7460;SDS011;6757;52.258;12.840;2023-04-26T04:02:46;1.00;;;0.70;;
7460;SDS011;6757;52.258;12.840;2023-04-26T04:05:13;1.20;;;0.60;;
7460;SDS011;6757;52.258;12.840;2023-04-26T04:07:39;0.30;;;0.30;;
7460;SDS011;6757;52.258;12.840;2023-04-26T04:10:07;4.75;;;0.75;;
7460;SDS011;6757;52.258;12.840;2023-04-26T04:12:35;0.40;;;0.40;;
7460;SDS011;6757;52.258;12.840;2023-04-26T04:15:04;0.52;;;0.52;;
7460;SDS011;6757;52.258;12.840;2023-04-26T04:17:32;1.63;;;0.85;;
7460;SDS011;6757;52.258;12.840;2023-04-26T04:19:59;0.80;;;0.75;;
7460;SDS011;6757;52.258;12.840;2023-04-26T04:22:29;0.30;;;0.30;;
7460;SDS011;6757;52.258;12.840;2023-04-26T04:24:56;2.92;;;1.58;;
7460;SDS011;6757;52.258;12.840;2023-04-26T04:27:24;0.47;;;0.47;;
7460;SDS011;6757;52.258;12.840;2023-04-26T04:29:51;0.47;;;0.47;;
7460;SDS011;6757;52.258;12.840;2023-04-26T04:32:20;0.90;;;0.85;;
7460;SDS011;6757;52.258;12.840;2023-04-26T04:34:47;0.20;;;0.20;;
7460;SDS011;6757;52.258;12.840;2023-04-26T04:37:15;0.73;;;0.73;;
7460;SDS011;6757;52.258;12.840;2023-04-26T04:39:43;2.00;;;0.55;;
7460;SDS011;6757;52.258;12.840;2023-04-26T04:42:10;0.75;;;0.50;;
7460;SDS011;6757;52.258;12.840;2023-04-26T04:44:37;0.75;;;0.73;;
7460;SDS011;6757;52.258;12.840;2023-04-26T04:47:05;3.08;;;1.27;;
7460;SDS011;6757;52.258;12.840;2023-04-26T04:49:33;0.40;;;0.40;;
7460;SDS011;6757;52.258;12.840;2023-04-26T04:52:01;1.70;;;0.73;;
7460;SDS011;6757;52.258;12.840;2023-04-26T04:54:28;0.45;;;0.45;;
7460;SDS011;6757;52.258;12.840;2023-04-26T04:56:55;1.50;;;1.40;;
7460;SDS011;6757;52.258;12.840;2023-04-26T04:59:22;0.73;;;0.73;;
7460;SDS011;6757;52.258;12.840;2023-04-26T05:01:49;2.35;;;0.82;;
7460;SDS011;6757;52.258;12.840;2023-04-26T05:04:16;2.33;;;0.73;;
7460;SDS011;6757;52.258;12.840;2023-04-26T05:06:44;0.73;;;0.57;;
7460;SDS011;6757;52.258;12.840;2023-04-26T05:09:11;2.05;;;0.77;;
7460;SDS011;6757;52.258;12.840;2023-04-26T05:11:38;3.90;;;1.40;;
7460;SDS011;6757;52.258;12.840;2023-04-26T05:14:05;1.98;;;1.30;;
7460;SDS011;6757;52.258;12.840;2023-04-26T05:16:32;0.80;;;0.65;;
7460;SDS011;6757;52.258;12.840;2023-04-26T05:18:59;1.35;;;1.05;;
7460;SDS011;6757;52.258;12.840;2023-04-26T05:21:26;2.67;;;1.45;;
7460;SDS011;6757;52.258;12.840;2023-04-26T05:23:55;3.10;;;1.13;;
7460;SDS011;6757;52.258;12.840;2023-04-26T05:26:22;0.50;;;0.50;;
7460;SDS011;6757;52.258;12.840;2023-04-26T05:28:48;2.28;;;1.20;;
7460;SDS011;6757;52.258;12.840;2023-04-26T05:31:15;2.65;;;0.63;;
7460;SDS011;6757;52.258;12.840;2023-04-26T05:33:42;3.30;;;2.15;;
7460;SDS011;6757;52.258;12.840;2023-04-26T05:36:09;1.98;;;1.15;;
7460;SDS011;6757;52.258;12.840;2023-04-26T05:38:36;2.17;;;1.48;;
7460;SDS011;6757;52.258;12.840;2023-04-26T05:41:04;3.55;;;1.63;;
7460;SDS011;6757;52.258;12.840;2023-04-26T05:43:31;7.10;;;1.70;;
7460;SDS011;6757;52.258;12.840;2023-04-26T05:45:59;1.52;;;1.23;;
7460;SDS011;6757;52.258;12.840;2023-04-26T05:48:26;2.28;;;1.48;;
7460;SDS011;6757;52.258;12.840;2023-04-26T05:50:53;4.13;;;1.58;;
7460;SDS011;6757;52.258;12.840;2023-04-26T05:53:21;4.18;;;1.63;;
7460;SDS011;6757;52.258;12.840;2023-04-26T05:55:47;5.03;;;1.75;;
7460;SDS011;6757;52.258;12.840;2023-04-26T05:58:16;5.30;;;2.33;;
7460;SDS011;6757;52.258;12.840;2023-04-26T06:00:43;3.13;;;1.27;;
7460;SDS011;6757;52.258;12.840;2023-04-26T06:03:10;0.90;;;0.82;;
7460;SDS011;6757;52.258;12.840;2023-04-26T06:05:37;2.30;;;1.52;;
7460;SDS011;6757;52.258;12.840;2023-04-26T06:08:05;3.75;;;1.73;;
7460;SDS011;6757;52.258;12.840;2023-04-26T06:10:32;0.60;;;0.57;;
7460;SDS011;6757;52.258;12.840;2023-04-26T06:13:01;4.25;;;1.38;;
7460;SDS011;6757;52.258;12.840;2023-04-26T06:15:29;4.45;;;1.27;;
7460;SDS011;6757;52.258;12.840;2023-04-26T06:17:57;1.45;;;1.02;;
7460;SDS011;6757;52.258;12.840;2023-04-26T06:20:24;3.53;;;1.25;;
7460;SDS011;6757;52.258;12.840;2023-04-26T06:22:51;2.42;;;0.98;;
7460;SDS011;6757;52.258;12.840;2023-04-26T06:25:18;3.90;;;1.42;;
7460;SDS011;6757;52.258;12.840;2023-04-26T06:27:45;1.70;;;1.60;;
7460;SDS011;6757;52.258;12.840;2023-04-26T06:30:12;1.00;;;0.95;;
7460;SDS011;6757;52.258;12.840;2023-04-26T06:32:41;0.70;;;0.70;;
7460;SDS011;6757;52.258;12.840;2023-04-26T06:35:08;1.80;;;0.95;;
7460;SDS011;6757;52.258;12.840;2023-04-26T06:37:36;2.40;;;1.30;;
7460;SDS011;6757;52.258;12.840;2023-04-26T06:40:03;2.67;;;1.08;;
7460;SDS011;6757;52.258;12.840;2023-04-26T06:42:31;2.25;;;1.10;;
7460;SDS011;6757;52.258;12.840;2023-04-26T06:44:58;4.03;;;0.98;;
7460;SDS011;6757;52.258;12.840;2023-04-26T06:47:25;2.92;;;1.05;;
7460;SDS011;6757;52.258;12.840;2023-04-26T06:49:54;4.82;;;1.95;;
7460;SDS011;6757;52.258;12.840;2023-04-26T06:52:21;1.83;;;1.65;;
7460;SDS011;6757;52.258;12.840;2023-04-26T06:54:47;1.60;;;1.35;;
7460;SDS011;6757;52.258;12.840;2023-04-26T06:57:14;1.25;;;0.88;;
7460;SDS011;6757;52.258;12.840;2023-04-26T06:59:41;2.63;;;1.05;;
7460;SDS011;6757;52.258;12.840;2023-04-26T07:02:09;4.43;;;1.45;;
7460;SDS011;6757;52.258;12.840;2023-04-26T07:04:36;1.92;;;1.00;;
7460;SDS011;6757;52.258;12.840;2023-04-26T07:07:04;2.78;;;1.85;;
7460;SDS011;6757;52.258;12.840;2023-04-26T07:09:31;1.15;;;0.75;;
7460;SDS011;6757;52.258;12.840;2023-04-26T07:11:58;1.70;;;1.23;;
7460;SDS011;6757;52.258;12.840;2023-04-26T07:14:25;9.65;;;1.10;;
7460;SDS011;6757;52.258;12.840;2023-04-26T07:16:52;1.02;;;0.93;;
7460;SDS011;6757;52.258;12.840;2023-04-26T07:19:19;2.15;;;1.17;;
7460;SDS011;6757;52.258;12.840;2023-04-26T07:21:46;5.95;;;1.92;;
7460;SDS011;6757;52.258;12.840;2023-04-26T07:24:14;0.82;;;0.75;;
7460;SDS011;6757;52.258;12.840;2023-04-26T07:26:41;0.52;;;0.52;;
7460;SDS011;6757;52.258;12.840;2023-04-26T07:29:08;1.20;;;1.15;;
7460;SDS011;6757;52.258;12.840;2023-04-26T07:31:36;2.80;;;1.60;;
7460;SDS011;6757;52.258;12.840;2023-04-26T07:34:03;4.72;;;1.60;;
7460;SDS011;6757;52.258;12.840;2023-04-26T07:36:30;5.43;;;1.35;;
7460;SDS011;6757;52.258;12.840;2023-04-26T07:38:57;2.35;;;1.42;;
7460;SDS011;6757;52.258;12.840;2023-04-26T07:41:25;1.55;;;1.15;;
7460;SDS011;6757;52.258;12.840;2023-04-26T07:43:52;3.70;;;1.40;;
7460;SDS011;6757;52.258;12.840;2023-04-26T07:46:19;1.23;;;0.80;;
7460;SDS011;6757;52.258;12.840;2023-04-26T07:48:46;3.70;;;1.50;;
7460;SDS011;6757;52.258;12.840;2023-04-26T07:51:13;1.55;;;1.17;;
7460;SDS011;6757;52.258;12.840;2023-04-26T07:53:40;3.45;;;1.33;;
7460;SDS011;6757;52.258;12.840;2023-04-26T07:56:07;3.17;;;1.05;;
7460;SDS011;6757;52.258;12.840;2023-04-26T08:01:10;2.65;;;1.30;;
7460;SDS011;6757;52.258;12.840;2023-04-26T08:03:37;2.10;;;1.17;;
7460;SDS011;6757;52.258;12.840;2023-04-26T08:06:04;2.75;;;1.40;;
7460;SDS011;6757;52.258;12.840;2023-04-26T08:08:32;2.92;;;0.90;;
7460;SDS011;6757;52.258;12.840;2023-04-26T08:11:06;0.82;;;0.50;;
7460;SDS011;6757;52.258;12.840;2023-04-26T08:13:33;2.35;;;1.67;;
7460;SDS011;6757;52.258;12.840;2023-04-26T08:16:00;1.35;;;1.05;;
7460;SDS011;6757;52.258;12.840;2023-04-26T08:18:28;2.58;;;0.95;;
7460;SDS011;6757;52.258;12.840;2023-04-26T08:20:55;1.05;;;0.75;;
7460;SDS011;6757;52.258;12.840;2023-04-26T08:23:22;0.50;;;0.50;;
7460;SDS011;6757;52.258;12.840;2023-04-26T08:25:49;0.90;;;0.90;;
7460;SDS011;6757;52.258;12.840;2023-04-26T08:28:16;4.00;;;1.15;;
7460;SDS011;6757;52.258;12.840;2023-04-26T08:30:43;0.85;;;0.85;;
7460;SDS011;6757;52.258;12.840;2023-04-26T08:33:10;1.60;;;1.05;;
7460;SDS011;6757;52.258;12.840;2023-04-26T08:35:38;2.60;;;0.88;;
7460;SDS011;6757;52.258;12.840;2023-04-26T08:38:05;1.17;;;0.80;;
7460;SDS011;6757;52.258;12.840;2023-04-26T08:40:32;3.65;;;1.05;;
7460;SDS011;6757;52.258;12.840;2023-04-26T08:43:01;1.45;;;0.90;;
7460;SDS011;6757;52.258;12.840;2023-04-26T08:45:28;8.55;;;1.17;;
7460;SDS011;6757;52.258;12.840;2023-04-26T08:47:57;0.80;;;0.63;;
7460;SDS011;6757;52.258;12.840;2023-04-26T08:50:31;0.82;;;0.73;;
7460;SDS011;6757;52.258;12.840;2023-04-26T08:53:00;2.40;;;1.08;;
7460;SDS011;6757;52.258;12.840;2023-04-26T08:55:28;2.72;;;1.00;;
7460;SDS011;6757;52.258;12.840;2023-04-26T08:57:55;3.40;;;0.95;;
7460;SDS011;6757;52.258;12.840;2023-04-26T09:00:23;0.73;;;0.70;;
7460;SDS011;6757;52.258;12.840;2023-04-26T09:02:51;2.80;;;1.23;;
7460;SDS011;6757;52.258;12.840;2023-04-26T09:05:18;1.25;;;0.63;;
7460;SDS011;6757;52.258;12.840;2023-04-26T09:07:47;3.83;;;1.10;;
7460;SDS011;6757;52.258;12.840;2023-04-26T09:10:19;4.03;;;1.42;;
7460;SDS011;6757;52.258;12.840;2023-04-26T09:12:48;1.00;;;0.88;;
7460;SDS011;6757;52.258;12.840;2023-04-26T09:15:17;6.13;;;1.08;;
7460;SDS011;6757;52.258;12.840;2023-04-26T09:17:45;1.08;;;1.00;;
7460;SDS011;6757;52.258;12.840;2023-04-26T09:20:17;4.70;;;1.50;;
7460;SDS011;6757;52.258;12.840;2023-04-26T09:22:48;1.08;;;0.98;;
7460;SDS011;6757;52.258;12.840;2023-04-26T09:25:18;3.38;;;1.15;;
7460;SDS011;6757;52.258;12.840;2023-04-26T09:27:52;4.18;;;1.48;;
7460;SDS011;6757;52.258;12.840;2023-04-26T09:30:20;1.02;;;0.70;;
7460;SDS011;6757;52.258;12.840;2023-04-26T09:32:48;1.60;;;1.35;;
7460;SDS011;6757;52.258;12.840;2023-04-26T09:35:24;2.03;;;1.08;;
7460;SDS011;6757;52.258;12.840;2023-04-26T09:37:54;1.10;;;0.98;;
7460;SDS011;6757;52.258;12.840;2023-04-26T09:40:27;1.05;;;0.70;;
7460;SDS011;6757;52.258;12.840;2023-04-26T09:42:55;2.78;;;0.57;;
7460;SDS011;6757;52.258;12.840;2023-04-26T09:45:27;1.95;;;1.58;;
7460;SDS011;6757;52.258;12.840;2023-04-26T09:50:40;8.02;;;1.90;;
7460;SDS011;6757;52.258;12.840;2023-04-26T09:53:08;0.38;;;0.38;;
7460;SDS011;6757;52.258;12.840;2023-04-26T09:55:36;1.92;;;1.00;;
7460;SDS011;6757;52.258;12.840;2023-04-26T09:58:07;7.70;;;1.33;;
7460;SDS011;6757;52.258;12.840;2023-04-26T10:03:03;1.63;;;0.50;;
7460;SDS011;6757;52.258;12.840;2023-04-26T10:05:32;1.40;;;0.88;;
7460;SDS011;6757;52.258;12.840;2023-04-26T10:07:59;0.77;;;0.68;;
7460;SDS011;6757;52.258;12.840;2023-04-26T10:10:28;3.42;;;1.15;;
7460;SDS011;6757;52.258;12.840;2023-04-26T10:12:57;1.13;;;1.00;;
7460;SDS011;6757;52.258;12.840;2023-04-26T10:15:25;3.10;;;1.40;;
7460;SDS011;6757;52.258;12.840;2023-04-26T10:17:53;3.83;;;1.52;;
7460;SDS011;6757;52.258;12.840;2023-04-26T10:20:20;2.50;;;1.00;;
7460;SDS011;6757;52.258;12.840;2023-04-26T10:22:50;2.20;;;1.45;;
7460;SDS011;6757;52.258;12.840;2023-04-26T10:25:19;5.85;;;1.20;;
7460;SDS011;6757;52.258;12.840;2023-04-26T10:27:49;1.40;;;1.23;;
7460;SDS011;6757;52.258;12.840;2023-04-26T10:30:21;4.30;;;1.27;;
7460;SDS011;6757;52.258;12.840;2023-04-26T10:35:42;3.58;;;0.93;;
7460;SDS011;6757;52.258;12.840;2023-04-26T10:38:37;3.95;;;1.48;;
7460;SDS011;6757;52.258;12.840;2023-04-26T10:43:57;1.20;;;1.10;;
7460;SDS011;6757;52.258;12.840;2023-04-26T10:46:34;1.27;;;1.05;;
7460;SDS011;6757;52.258;12.840;2023-04-26T10:49:13;1.13;;;0.98;;
7460;SDS011;6757;52.258;12.840;2023-04-26T10:54:47;4.93;;;1.20;;
7460;SDS011;6757;52.258;12.840;2023-04-26T10:57:16;1.63;;;1.40;;
7460;SDS011;6757;52.258;12.840;2023-04-26T11:02:56;1.70;;;0.98;;
7460;SDS011;6757;52.258;12.840;2023-04-26T11:08:25;1.75;;;1.05;;
7460;SDS011;6757;52.258;12.840;2023-04-26T11:10:58;4.45;;;1.20;;
7460;SDS011;6757;52.258;12.840;2023-04-26T11:13:36;1.38;;;1.08;;
7460;SDS011;6757;52.258;12.840;2023-04-26T11:16:05;2.20;;;1.33;;
7460;SDS011;6757;52.258;12.840;2023-04-26T11:18:35;1.67;;;1.15;;
7460;SDS011;6757;52.258;12.840;2023-04-26T11:21:03;2.17;;;1.27;;
7460;SDS011;6757;52.258;12.840;2023-04-26T11:23:31;7.03;;;2.03;;
7460;SDS011;6757;52.258;12.840;2023-04-26T11:25:59;0.80;;;0.80;;
7460;SDS011;6757;52.258;12.840;2023-04-26T11:28:28;2.40;;;1.17;;
7460;SDS011;6757;52.258;12.840;2023-04-26T11:30:55;5.13;;;1.63;;
7460;SDS011;6757;52.258;12.840;2023-04-26T11:33:23;7.05;;;1.88;;
7460;SDS011;6757;52.258;12.840;2023-04-26T11:35:52;1.45;;;1.25;;
7460;SDS011;6757;52.258;12.840;2023-04-26T11:38:20;2.88;;;1.70;;
7460;SDS011;6757;52.258;12.840;2023-04-26T11:40:52;1.45;;;1.02;;
7460;SDS011;6757;52.258;12.840;2023-04-26T11:43:21;2.58;;;1.45;;
7460;SDS011;6757;52.258;12.840;2023-04-26T11:45:48;4.80;;;1.90;;
7460;SDS011;6757;52.258;12.840;2023-04-26T11:48:15;5.40;;;1.30;;
7460;SDS011;6757;52.258;12.840;2023-04-26T11:50:42;1.83;;;1.42;;
7460;SDS011;6757;52.258;12.840;2023-04-26T11:53:12;6.90;;;1.63;;
7460;SDS011;6757;52.258;12.840;2023-04-26T11:55:39;5.50;;;2.00;;
7460;SDS011;6757;52.258;12.840;2023-04-26T11:58:09;1.25;;;1.20;;
7460;SDS011;6757;52.258;12.840;2023-04-26T12:03:21;7.90;;;1.85;;
7460;SDS011;6757;52.258;12.840;2023-04-26T12:05:52;2.85;;;1.08;;
7460;SDS011;6757;52.258;12.840;2023-04-26T12:08:23;1.60;;;1.10;;
7460;SDS011;6757;52.258;12.840;2023-04-26T12:13:19;4.47;;;1.38;;
7460;SDS011;6757;52.258;12.840;2023-04-26T12:15:46;7.45;;;1.90;;
7460;SDS011;6757;52.258;12.840;2023-04-26T12:18:15;6.13;;;1.90;;
7460;SDS011;6757;52.258;12.840;2023-04-26T12:20:42;1.48;;;1.25;;
7460;SDS011;6757;52.258;12.840;2023-04-26T12:23:11;2.10;;;1.25;;
7460;SDS011;6757;52.258;12.840;2023-04-26T12:25:50;6.35;;;1.98;;
7460;SDS011;6757;52.258;12.840;2023-04-26T12:28:19;2.25;;;1.27;;
7460;SDS011;6757;52.258;12.840;2023-04-26T12:30:47;5.78;;;1.10;;
7460;SDS011;6757;52.258;12.840;2023-04-26T12:33:15;4.72;;;1.48;;
7460;SDS011;6757;52.258;12.840;2023-04-26T12:35:46;5.38;;;2.00;;
7460;SDS011;6757;52.258;12.840;2023-04-26T12:38:13;3.35;;;1.80;;
7460;SDS011;6757;52.258;12.840;2023-04-26T12:40:42;3.65;;;1.30;;
7460;SDS011;6757;52.258;12.840;2023-04-26T12:43:09;3.22;;;1.63;;
7460;SDS011;6757;52.258;12.840;2023-04-26T12:45:36;7.75;;;1.42;;
7460;SDS011;6757;52.258;12.840;2023-04-26T12:48:03;3.72;;;1.73;;
7460;SDS011;6757;52.258;12.840;2023-04-26T12:50:30;3.08;;;1.67;;
7460;SDS011;6757;52.258;12.840;2023-04-26T12:52:58;1.08;;;1.00;;
7460;SDS011;6757;52.258;12.840;2023-04-26T12:55:25;3.70;;;1.85;;
7460;SDS011;6757;52.258;12.840;2023-04-26T12:57:53;1.67;;;1.30;;
7460;SDS011;6757;52.258;12.840;2023-04-26T13:00:20;7.53;;;1.52;;
7460;SDS011;6757;52.258;12.840;2023-04-26T13:02:47;4.47;;;1.90;;
7460;SDS011;6757;52.258;12.840;2023-04-26T13:05:14;2.10;;;1.38;;
7460;SDS011;6757;52.258;12.840;2023-04-26T13:07:41;1.90;;;1.38;;
7460;SDS011;6757;52.258;12.840;2023-04-26T13:10:09;2.33;;;1.52;;
7460;SDS011;6757;52.258;12.840;2023-04-26T13:12:36;3.22;;;1.70;;
7460;SDS011;6757;52.258;12.840;2023-04-26T13:15:06;3.05;;;1.40;;
7460;SDS011;6757;52.258;12.840;2023-04-26T13:17:34;1.98;;;1.88;;
7460;SDS011;6757;52.258;12.840;2023-04-26T13:20:02;2.53;;;1.95;;
7460;SDS011;6757;52.258;12.840;2023-04-26T13:22:31;3.30;;;1.85;;
7460;SDS011;6757;52.258;12.840;2023-04-26T13:24:58;3.92;;;1.50;;
7460;SDS011;6757;52.258;12.840;2023-04-26T13:27:25;4.78;;;1.75;;
7460;SDS011;6757;52.258;12.840;2023-04-26T13:29:52;2.35;;;1.45;;
7460;SDS011;6757;52.258;12.840;2023-04-26T13:32:20;4.03;;;1.80;;
7460;SDS011;6757;52.258;12.840;2023-04-26T13:34:47;4.03;;;1.70;;
7460;SDS011;6757;52.258;12.840;2023-04-26T13:37:14;1.55;;;1.23;;
7460;SDS011;6757;52.258;12.840;2023-04-26T13:39:44;1.58;;;1.48;;
7460;SDS011;6757;52.258;12.840;2023-04-26T13:42:12;3.40;;;1.98;;
7460;SDS011;6757;52.258;12.840;2023-04-26T13:44:39;0.85;;;0.85;;
7460;SDS011;6757;52.258;12.840;2023-04-26T13:47:06;2.67;;;1.52;;
7460;SDS011;6757;52.258;12.840;2023-04-26T13:49:34;6.30;;;2.28;;
7460;SDS011;6757;52.258;12.840;2023-04-26T13:52:01;1.80;;;1.70;;
7460;SDS011;6757;52.258;12.840;2023-04-26T13:54:28;4.05;;;1.92;;
7460;SDS011;6757;52.258;12.840;2023-04-26T13:56:55;4.07;;;1.65;;
7460;SDS011;6757;52.258;12.840;2023-04-26T13:59:22;5.95;;;2.25;;
7460;SDS011;6757;52.258;12.840;2023-04-26T14:01:49;4.38;;;1.83;;
7460;SDS011;6757;52.258;12.840;2023-04-26T14:04:16;4.57;;;1.92;;
7460;SDS011;6757;52.258;12.840;2023-04-26T14:06:44;3.63;;;1.90;;
7460;SDS011;6757;52.258;12.840;2023-04-26T14:09:11;4.07;;;1.77;;
7460;SDS011;6757;52.258;12.840;2023-04-26T14:11:38;3.70;;;2.08;;
7460;SDS011;6757;52.258;12.840;2023-04-26T14:14:05;2.67;;;2.00;;
7460;SDS011;6757;52.258;12.840;2023-04-26T14:16:32;2.95;;;1.73;;
7460;SDS011;6757;52.258;12.840;2023-04-26T14:18:59;5.68;;;2.25;;
7460;SDS011;6757;52.258;12.840;2023-04-26T14:21:26;2.78;;;1.73;;
7460;SDS011;6757;52.258;12.840;2023-04-26T14:23:55;4.13;;;1.60;;
7460;SDS011;6757;52.258;12.840;2023-04-26T14:26:23;6.32;;;2.05;;
7460;SDS011;6757;52.258;12.840;2023-04-26T14:28:51;3.10;;;1.90;;
7460;SDS011;6757;52.258;12.840;2023-04-26T14:31:18;3.08;;;1.60;;
7460;SDS011;6757;52.258;12.840;2023-04-26T14:33:45;3.45;;;1.92;;
7460;SDS011;6757;52.258;12.840;2023-04-26T14:36:12;6.20;;;2.00;;
7460;SDS011;6757;52.258;12.840;2023-04-26T14:38:39;3.00;;;1.70;;
7460;SDS011;6757;52.258;12.840;2023-04-26T14:41:12;2.72;;;1.65;;
7460;SDS011;6757;52.258;12.840;2023-04-26T14:43:40;2.30;;;1.75;;
7460;SDS011;6757;52.258;12.840;2023-04-26T14:46:07;2.78;;;1.65;;
7460;SDS011;6757;52.258;12.840;2023-04-26T14:48:34;4.20;;;1.60;;
7460;SDS011;6757;52.258;12.840;2023-04-26T14:51:01;4.15;;;2.03;;
7460;SDS011;6757;52.258;12.840;2023-04-26T14:53:28;4.97;;;2.00;;
7460;SDS011;6757;52.258;12.840;2023-04-26T14:55:55;2.72;;;1.70;;
7460;SDS011;6757;52.258;12.840;2023-04-26T14:58:24;1.40;;;1.08;;
7460;SDS011;6757;52.258;12.840;2023-04-26T15:00:52;1.38;;;0.95;;
7460;SDS011;6757;52.258;12.840;2023-04-26T15:03:19;4.22;;;1.55;;
7460;SDS011;6757;52.258;12.840;2023-04-26T15:05:46;4.20;;;1.90;;
7460;SDS011;6757;52.258;12.840;2023-04-26T15:08:13;2.80;;;1.58;;
7460;SDS011;6757;52.258;12.840;2023-04-26T15:10:40;3.47;;;1.50;;
7460;SDS011;6757;52.258;12.840;2023-04-26T15:13:07;2.88;;;1.55;;
7460;SDS011;6757;52.258;12.840;2023-04-26T15:15:35;2.88;;;1.70;;
7460;SDS011;6757;52.258;12.840;2023-04-26T15:18:02;2.90;;;1.75;;
7460;SDS011;6757;52.258;12.840;2023-04-26T15:20:29;4.20;;;1.65;;
7460;SDS011;6757;52.258;12.840;2023-04-26T15:22:56;4.85;;;2.03;;
7460;SDS011;6757;52.258;12.840;2023-04-26T15:25:23;5.47;;;1.90;;
7460;SDS011;6757;52.258;12.840;2023-04-26T15:27:50;1.55;;;1.27;;
7460;SDS011;6757;52.258;12.840;2023-04-26T15:30:17;6.25;;;1.60;;
7460;SDS011;6757;52.258;12.840;2023-04-26T15:32:47;2.72;;;1.30;;